ENT9PF EPWA-LGZA
Flight info
| Callsign | ENT9PF |
|---|---|
| Flight time | 2h 20m |
| Altitude | 36000 |
| Route | EVINA M66 BABKO/N0439F370 DCT PARAK DCT REDVA UL616 KOGAT DCT BITLA/N0438F380 DCT YNN/N0436F370 UT352 ASTUS |
| Aircraft | B738/M-SDE2E3FGHIRWXY/LB1 |
Departure
| Time | 2026-05-05 12:56 |
|---|---|
| Airport | Warsaw Chopin Airport (EPWA) |
Arrival
| Time | 2026-05-05 15:16 |
|---|---|
| Airport | Zakynthos International Airport Dionysios Solomos (LGZA) |
| Time | Latitude | Longitude | Altitude | Speed | Heading |
|---|---|---|---|---|---|
| 2026-05-05 12:22 | 52.17649 | 20.96655 | 338 ft | 0 kts | 237° |
| 2026-05-05 12:42 | 52.17657 | 20.96674 | 332 ft | 2 kts | 237° |
| 2026-05-05 12:43 | 52.17665 | 20.96707 | 332 ft | 4 kts | 288° |
| 2026-05-05 12:43 | 52.17651 | 20.96735 | 332 ft | 4 kts | 327° |
| 2026-05-05 12:43 | 52.17629 | 20.96759 | 333 ft | 4 kts | 327° |
| 2026-05-05 12:43 | 52.17608 | 20.96781 | 332 ft | 4 kts | 306° |
| 2026-05-05 12:44 | 52.17603 | 20.96818 | 335 ft | 4 kts | 253° |
| 2026-05-05 12:44 | 52.17612 | 20.96850 | 333 ft | 0 kts | 237° |
| 2026-05-05 12:46 | 52.17606 | 20.96835 | 332 ft | 4 kts | 237° |
| 2026-05-05 12:46 | 52.17577 | 20.96760 | 336 ft | 10 kts | 238° |
| 2026-05-05 12:46 | 52.17539 | 20.96656 | 333 ft | 11 kts | 240° |
| 2026-05-05 12:47 | 52.17496 | 20.96561 | 337 ft | 10 kts | 225° |
| 2026-05-05 12:47 | 52.17453 | 20.96456 | 335 ft | 13 kts | 242° |
| 2026-05-05 12:47 | 52.17365 | 20.96419 | 334 ft | 17 kts | 151° |
| 2026-05-05 12:47 | 52.17254 | 20.96516 | 335 ft | 18 kts | 152° |
| 2026-05-05 12:48 | 52.17144 | 20.96611 | 335 ft | 18 kts | 152° |
| 2026-05-05 12:48 | 52.17038 | 20.96702 | 337 ft | 17 kts | 152° |
| 2026-05-05 12:48 | 52.16937 | 20.96793 | 336 ft | 16 kts | 150° |
| 2026-05-05 12:48 | 52.16839 | 20.96878 | 335 ft | 16 kts | 153° |
| 2026-05-05 12:49 | 52.16745 | 20.96959 | 338 ft | 15 kts | 150° |
| 2026-05-05 12:49 | 52.16665 | 20.97030 | 337 ft | 11 kts | 151° |
| 2026-05-05 12:49 | 52.16603 | 20.97084 | 335 ft | 8 kts | 152° |
| 2026-05-05 12:49 | 52.16582 | 20.97103 | 337 ft | 0 kts | 152° |
| 2026-05-05 12:50 | 52.16580 | 20.97104 | 337 ft | 1 kts | 152° |
| 2026-05-05 12:51 | 52.16541 | 20.97137 | 334 ft | 11 kts | 152° |
| 2026-05-05 12:51 | 52.16441 | 20.97224 | 334 ft | 21 kts | 152° |
| 2026-05-05 12:51 | 52.16303 | 20.97347 | 335 ft | 23 kts | 152° |
| 2026-05-05 12:51 | 52.16166 | 20.97466 | 336 ft | 22 kts | 152° |
| 2026-05-05 12:52 | 52.16034 | 20.97582 | 336 ft | 21 kts | 152° |
| 2026-05-05 12:52 | 52.15905 | 20.97694 | 336 ft | 21 kts | 152° |
| 2026-05-05 12:52 | 52.15780 | 20.97803 | 336 ft | 20 kts | 152° |
| 2026-05-05 12:52 | 52.15687 | 20.97885 | 336 ft | 10 kts | 152° |
| 2026-05-05 12:53 | 52.15632 | 20.97948 | 337 ft | 10 kts | 121° |
| 2026-05-05 12:53 | 52.15651 | 20.98041 | 337 ft | 9 kts | 31° |
| 2026-05-05 12:53 | 52.15710 | 20.98085 | 337 ft | 9 kts | 24° |
| 2026-05-05 12:53 | 52.15767 | 20.98127 | 338 ft | 9 kts | 24° |
| 2026-05-05 12:54 | 52.15940 | 20.98254 | 338 ft | 19 kts | 23° |
| 2026-05-05 12:54 | 52.16055 | 20.98339 | 334 ft | 15 kts | 24° |
| 2026-05-05 12:54 | 52.16096 | 20.98369 | 337 ft | 4 kts | 15° |
| 2026-05-05 12:55 | 52.16117 | 20.98340 | 336 ft | 4 kts | 296° |
| 2026-05-05 12:55 | 52.16118 | 20.98336 | 336 ft | 0 kts | 296° |
| 2026-05-05 12:55 | 52.16129 | 20.98298 | 334 ft | 18 kts | 295° |
| 2026-05-05 12:56 | 52.16288 | 20.97733 | 334 ft | 91 kts | 294° |
| 2026-05-05 12:56 | 52.16642 | 20.96472 | 349 ft | 151 kts | 294° |
| 2026-05-05 12:56 | 52.17094 | 20.94823 | 840 ft | 163 kts | 292° |
| 2026-05-05 12:56 | 52.17564 | 20.93106 | 1576 ft | 168 kts | 292° |
| 2026-05-05 12:57 | 52.18051 | 20.91359 | 2308 ft | 173 kts | 290° |
| 2026-05-05 12:57 | 52.18190 | 20.89466 | 3020 ft | 168 kts | 251° |
| 2026-05-05 12:57 | 52.17888 | 20.87601 | 3769 ft | 177 kts | 254° |
| 2026-05-05 12:57 | 52.17596 | 20.85485 | 4091 ft | 206 kts | 255° |
| 2026-05-05 12:58 | 52.17271 | 20.83071 | 4309 ft | 230 kts | 253° |
| 2026-05-05 12:58 | 52.16473 | 20.80707 | 4533 ft | 253 kts | 219° |
| 2026-05-05 12:58 | 52.14879 | 20.79425 | 5241 ft | 260 kts | 199° |
| 2026-05-05 12:58 | 52.13177 | 20.78494 | 6291 ft | 257 kts | 198° |
| 2026-05-05 12:59 | 52.11468 | 20.77591 | 7148 ft | 260 kts | 199° |
| 2026-05-05 12:59 | 52.09767 | 20.76682 | 8013 ft | 261 kts | 199° |
| 2026-05-05 12:59 | 52.08045 | 20.75741 | 8889 ft | 262 kts | 200° |
| 2026-05-05 13:00 | 52.04564 | 20.73787 | 10353 ft | 277 kts | 201° |
| 2026-05-05 13:00 | 52.02661 | 20.72696 | 10528 ft | 302 kts | 201° |
| 2026-05-05 13:01 | 51.96410 | 20.69089 | 12394 ft | 326 kts | 202° |
| 2026-05-05 13:01 | 51.94256 | 20.67842 | 13136 ft | 330 kts | 202° |
| 2026-05-05 13:01 | 51.92086 | 20.66584 | 13848 ft | 334 kts | 202° |
| 2026-05-05 13:01 | 51.89883 | 20.65307 | 14483 ft | 338 kts | 202° |
| 2026-05-05 13:02 | 51.87657 | 20.64017 | 15212 ft | 340 kts | 202° |
| 2026-05-05 13:02 | 51.85420 | 20.62722 | 15888 ft | 343 kts | 202° |
| 2026-05-05 13:02 | 51.83142 | 20.61485 | 16530 ft | 348 kts | 196° |
| 2026-05-05 13:02 | 51.80723 | 20.60926 | 17228 ft | 353 kts | 186° |
| 2026-05-05 13:03 | 51.78265 | 20.60691 | 17906 ft | 356 kts | 186° |
| 2026-05-05 13:03 | 51.75771 | 20.60465 | 18460 ft | 361 kts | 185° |
| 2026-05-05 13:03 | 51.73247 | 20.60234 | 18995 ft | 365 kts | 186° |
| 2026-05-05 13:03 | 51.70702 | 20.59995 | 19533 ft | 369 kts | 186° |
| 2026-05-05 13:04 | 51.68127 | 20.59747 | 20064 ft | 372 kts | 186° |
| 2026-05-05 13:04 | 51.65529 | 20.59491 | 20588 ft | 376 kts | 186° |
| 2026-05-05 13:04 | 51.62899 | 20.59229 | 21098 ft | 380 kts | 186° |
| 2026-05-05 13:04 | 51.60251 | 20.58962 | 21608 ft | 384 kts | 186° |
| 2026-05-05 13:05 | 51.57568 | 20.58690 | 22105 ft | 388 kts | 186° |
| 2026-05-05 13:05 | 51.54898 | 20.58420 | 22594 ft | 391 kts | 186° |
| 2026-05-05 13:05 | 51.52168 | 20.58143 | 23082 ft | 395 kts | 186° |
| 2026-05-05 13:05 | 51.49409 | 20.57863 | 23532 ft | 399 kts | 186° |
| 2026-05-05 13:06 | 51.46627 | 20.57581 | 23944 ft | 401 kts | 186° |
| 2026-05-05 13:06 | 51.44744 | 20.57391 | 24252 ft | 402 kts | 186° |
| 2026-05-05 13:06 | 51.41938 | 20.57108 | 24662 ft | 405 kts | 186° |
| 2026-05-05 13:06 | 51.39119 | 20.56824 | 25086 ft | 407 kts | 186° |
| 2026-05-05 13:07 | 51.36321 | 20.56543 | 25480 ft | 409 kts | 186° |
| 2026-05-05 13:07 | 51.33474 | 20.56256 | 25866 ft | 412 kts | 186° |
| 2026-05-05 13:07 | 51.30601 | 20.55967 | 26250 ft | 415 kts | 186° |
| 2026-05-05 13:07 | 51.27706 | 20.55676 | 26626 ft | 417 kts | 186° |
| 2026-05-05 13:08 | 51.24800 | 20.55385 | 26993 ft | 420 kts | 186° |
| 2026-05-05 13:08 | 51.21875 | 20.55092 | 27360 ft | 422 kts | 186° |
| 2026-05-05 13:08 | 51.18941 | 20.54798 | 27718 ft | 424 kts | 186° |
| 2026-05-05 13:08 | 51.15983 | 20.54503 | 28075 ft | 427 kts | 186° |
| 2026-05-05 13:09 | 51.13014 | 20.54207 | 28462 ft | 428 kts | 186° |
| 2026-05-05 13:09 | 51.10034 | 20.53910 | 28794 ft | 431 kts | 186° |
| 2026-05-05 13:09 | 51.07032 | 20.53611 | 29114 ft | 433 kts | 186° |
| 2026-05-05 13:09 | 51.04012 | 20.53310 | 29448 ft | 435 kts | 186° |
| 2026-05-05 13:10 | 51.00985 | 20.53010 | 29745 ft | 437 kts | 186° |
| 2026-05-05 13:10 | 50.97937 | 20.52708 | 30021 ft | 440 kts | 186° |
| 2026-05-05 13:10 | 50.94880 | 20.52405 | 30309 ft | 441 kts | 186° |
| 2026-05-05 13:10 | 50.91828 | 20.52105 | 30799 ft | 436 kts | 187° |
| 2026-05-05 13:11 | 50.88828 | 20.51812 | 31360 ft | 430 kts | 187° |
| 2026-05-05 13:11 | 50.85867 | 20.51522 | 31694 ft | 430 kts | 187° |
| 2026-05-05 13:11 | 50.82871 | 20.51226 | 31928 ft | 433 kts | 187° |
| 2026-05-05 13:11 | 50.79868 | 20.50929 | 32211 ft | 433 kts | 187° |
| 2026-05-05 13:12 | 50.76866 | 20.50633 | 32587 ft | 431 kts | 187° |
| 2026-05-05 13:12 | 50.73878 | 20.50341 | 32982 ft | 429 kts | 187° |
| 2026-05-05 13:12 | 50.70898 | 20.50049 | 33302 ft | 429 kts | 187° |
| 2026-05-05 13:12 | 50.67918 | 20.49757 | 33533 ft | 430 kts | 187° |
| 2026-05-05 13:13 | 50.61885 | 20.49165 | 33897 ft | 435 kts | 187° |
| 2026-05-05 13:13 | 50.58880 | 20.48872 | 34250 ft | 432 kts | 187° |
| 2026-05-05 13:13 | 50.55884 | 20.48582 | 34532 ft | 431 kts | 187° |
| 2026-05-05 13:14 | 50.52887 | 20.48291 | 34717 ft | 432 kts | 187° |
| 2026-05-05 13:14 | 50.49883 | 20.47999 | 34915 ft | 433 kts | 187° |
| 2026-05-05 13:14 | 50.46875 | 20.47707 | 35164 ft | 433 kts | 187° |
| 2026-05-05 13:14 | 50.43874 | 20.47417 | 35421 ft | 432 kts | 187° |
| 2026-05-05 13:15 | 50.40879 | 20.47127 | 35660 ft | 431 kts | 187° |
| 2026-05-05 13:15 | 50.37882 | 20.46838 | 35844 ft | 432 kts | 187° |
| 2026-05-05 13:15 | 50.31837 | 20.46252 | 35865 ft | 437 kts | 187° |
| 2026-05-05 13:16 | 50.25787 | 20.45672 | 35849 ft | 433 kts | 187° |
| 2026-05-05 13:16 | 50.19813 | 20.45101 | 35877 ft | 430 kts | 187° |
| 2026-05-05 13:17 | 50.13793 | 20.44522 | 36096 ft | 435 kts | 186° |
| 2026-05-05 13:17 | 50.10771 | 20.44233 | 36339 ft | 434 kts | 186° |
| 2026-05-05 13:17 | 50.07757 | 20.43946 | 36575 ft | 433 kts | 186° |
| 2026-05-05 13:18 | 50.04746 | 20.43659 | 36760 ft | 433 kts | 186° |
| 2026-05-05 13:18 | 50.01774 | 20.43377 | 36853 ft | 435 kts | 186° |
| 2026-05-05 13:18 | 49.95710 | 20.42799 | 36868 ft | 436 kts | 186° |
| 2026-05-05 13:19 | 49.89664 | 20.42228 | 36873 ft | 433 kts | 186° |
| 2026-05-05 13:19 | 49.83657 | 20.41661 | 36883 ft | 432 kts | 186° |
| 2026-05-05 13:20 | 49.77663 | 20.41096 | 36873 ft | 431 kts | 186° |
| 2026-05-05 13:20 | 49.71674 | 20.40533 | 36893 ft | 431 kts | 186° |
| 2026-05-05 13:21 | 49.65688 | 20.39970 | 36895 ft | 431 kts | 186° |
| 2026-05-05 13:21 | 49.59684 | 20.39407 | 36902 ft | 432 kts | 186° |
| 2026-05-05 13:22 | 49.53674 | 20.38847 | 36910 ft | 433 kts | 186° |
| 2026-05-05 13:22 | 49.47646 | 20.38285 | 36908 ft | 434 kts | 187° |
| 2026-05-05 13:23 | 49.41616 | 20.37724 | 36912 ft | 435 kts | 186° |
| 2026-05-05 13:23 | 49.35566 | 20.37165 | 36914 ft | 436 kts | 187° |
| 2026-05-05 13:24 | 49.29506 | 20.36604 | 36914 ft | 437 kts | 186° |
| 2026-05-05 13:24 | 49.23446 | 20.36046 | 36929 ft | 436 kts | 186° |
| 2026-05-05 13:25 | 49.17379 | 20.35488 | 36955 ft | 436 kts | 186° |
| 2026-05-05 13:25 | 49.11321 | 20.34932 | 36969 ft | 436 kts | 186° |
| 2026-05-05 13:26 | 49.05257 | 20.34376 | 36959 ft | 437 kts | 186° |
| 2026-05-05 13:26 | 48.99190 | 20.33823 | 36968 ft | 437 kts | 186° |
| 2026-05-05 13:27 | 48.93129 | 20.33271 | 36966 ft | 437 kts | 186° |
| 2026-05-05 13:27 | 48.87098 | 20.32723 | 36956 ft | 437 kts | 186° |
| 2026-05-05 13:28 | 48.81026 | 20.32172 | 36952 ft | 437 kts | 186° |
| 2026-05-05 13:28 | 48.74956 | 20.31624 | 36944 ft | 437 kts | 187° |
| 2026-05-05 13:29 | 48.68884 | 20.31076 | 36941 ft | 436 kts | 186° |
| 2026-05-05 13:29 | 48.62823 | 20.30531 | 36938 ft | 436 kts | 186° |
| 2026-05-05 13:30 | 48.56780 | 20.29989 | 36936 ft | 435 kts | 186° |
| 2026-05-05 13:30 | 48.50738 | 20.29447 | 36926 ft | 435 kts | 186° |
| 2026-05-05 13:31 | 48.44695 | 20.28907 | 36937 ft | 435 kts | 186° |
| 2026-05-05 13:31 | 48.38687 | 20.28371 | 36937 ft | 436 kts | 186° |
| 2026-05-05 13:32 | 48.32617 | 20.27831 | 36928 ft | 437 kts | 186° |
| 2026-05-05 13:32 | 48.26542 | 20.27292 | 36935 ft | 438 kts | 186° |
| 2026-05-05 13:33 | 48.20436 | 20.26751 | 36939 ft | 440 kts | 186° |
| 2026-05-05 13:33 | 48.14313 | 20.26211 | 36927 ft | 441 kts | 186° |
| 2026-05-05 13:34 | 48.08169 | 20.25669 | 36931 ft | 442 kts | 186° |
| 2026-05-05 13:34 | 48.02030 | 20.25131 | 36933 ft | 442 kts | 186° |
| 2026-05-05 13:35 | 47.95882 | 20.24592 | 36927 ft | 442 kts | 186° |
| 2026-05-05 13:35 | 47.89750 | 20.24056 | 36925 ft | 441 kts | 185° |
| 2026-05-05 13:36 | 47.83625 | 20.23522 | 36930 ft | 440 kts | 186° |
| 2026-05-05 13:36 | 47.77509 | 20.22989 | 36925 ft | 439 kts | 186° |
| 2026-05-05 13:37 | 47.71415 | 20.22460 | 36922 ft | 439 kts | 185° |
| 2026-05-05 13:37 | 47.65324 | 20.21933 | 36926 ft | 438 kts | 186° |
| 2026-05-05 13:38 | 47.59276 | 20.21410 | 36933 ft | 438 kts | 185° |
| 2026-05-05 13:38 | 47.58248 | 20.21321 | 36933 ft | 438 kts | 186° |
| 2026-05-05 13:39 | 47.47086 | 20.20359 | 36929 ft | 439 kts | 185° |
| 2026-05-05 13:39 | 47.40973 | 20.19835 | 36932 ft | 440 kts | 185° |
| 2026-05-05 13:40 | 47.34860 | 20.19311 | 36935 ft | 441 kts | 185° |
| 2026-05-05 13:40 | 47.28732 | 20.18788 | 36937 ft | 441 kts | 185° |
| 2026-05-05 13:41 | 47.22599 | 20.18265 | 36938 ft | 441 kts | 185° |
| 2026-05-05 13:41 | 47.16468 | 20.17744 | 36941 ft | 442 kts | 185° |
| 2026-05-05 13:42 | 47.10325 | 20.17223 | 36923 ft | 442 kts | 185° |
| 2026-05-05 13:42 | 47.04181 | 20.16703 | 36936 ft | 442 kts | 185° |
| 2026-05-05 13:43 | 46.98072 | 20.16187 | 36936 ft | 443 kts | 185° |
| 2026-05-05 13:43 | 46.91926 | 20.15669 | 36936 ft | 443 kts | 185° |
| 2026-05-05 13:44 | 46.85770 | 20.15151 | 36938 ft | 443 kts | 185° |
| 2026-05-05 13:44 | 46.79610 | 20.14635 | 36938 ft | 443 kts | 185° |
| 2026-05-05 13:45 | 46.73451 | 20.14119 | 36935 ft | 443 kts | 185° |
| 2026-05-05 13:45 | 46.67293 | 20.13605 | 36935 ft | 443 kts | 185° |
| 2026-05-05 13:46 | 46.61142 | 20.13093 | 36932 ft | 443 kts | 185° |
| 2026-05-05 13:46 | 46.54990 | 20.12582 | 36939 ft | 443 kts | 185° |
| 2026-05-05 13:47 | 46.48839 | 20.12072 | 36935 ft | 442 kts | 185° |
| 2026-05-05 13:47 | 46.42700 | 20.11564 | 36932 ft | 442 kts | 185° |
| 2026-05-05 13:48 | 46.36559 | 20.11057 | 36941 ft | 442 kts | 185° |
| 2026-05-05 13:48 | 46.30422 | 20.10551 | 36936 ft | 442 kts | 185° |
| 2026-05-05 13:49 | 46.24322 | 20.10050 | 36940 ft | 441 kts | 185° |
| 2026-05-05 13:49 | 46.18196 | 20.09547 | 36935 ft | 441 kts | 185° |
| 2026-05-05 13:50 | 46.12052 | 20.09901 | 36958 ft | 443 kts | 175° |
| 2026-05-05 13:50 | 46.05927 | 20.10994 | 36946 ft | 444 kts | 174° |
| 2026-05-05 13:51 | 45.99798 | 20.12092 | 36929 ft | 444 kts | 175° |
| 2026-05-05 13:51 | 45.93664 | 20.13133 | 36948 ft | 444 kts | 175° |
| 2026-05-05 13:52 | 45.87515 | 20.14145 | 36940 ft | 445 kts | 175° |
| 2026-05-05 13:52 | 45.81394 | 20.15141 | 36932 ft | 445 kts | 175° |
| 2026-05-05 13:53 | 45.76233 | 20.15979 | 36938 ft | 446 kts | 175° |
| 2026-05-05 13:53 | 45.70063 | 20.16981 | 36952 ft | 446 kts | 175° |
| 2026-05-05 13:54 | 45.63881 | 20.17983 | 36933 ft | 447 kts | 175° |
| 2026-05-05 13:54 | 45.57689 | 20.18984 | 36942 ft | 448 kts | 175° |
| 2026-05-05 13:55 | 45.51502 | 20.19983 | 36933 ft | 448 kts | 175° |
| 2026-05-05 13:55 | 45.45296 | 20.20982 | 36955 ft | 448 kts | 175° |
| 2026-05-05 13:56 | 45.39091 | 20.21979 | 36949 ft | 449 kts | 175° |
| 2026-05-05 13:56 | 45.32878 | 20.22975 | 36945 ft | 449 kts | 175° |
| 2026-05-05 13:57 | 45.26705 | 20.23963 | 36946 ft | 450 kts | 175° |
| 2026-05-05 13:57 | 45.20479 | 20.24956 | 36948 ft | 450 kts | 175° |
| 2026-05-05 13:58 | 45.14247 | 20.25949 | 36952 ft | 451 kts | 175° |
| 2026-05-05 13:58 | 45.08011 | 20.26940 | 36943 ft | 451 kts | 176° |
| 2026-05-05 13:59 | 44.98651 | 20.28423 | 36964 ft | 451 kts | 176° |
| 2026-05-05 14:00 | 44.89276 | 20.29904 | 36966 ft | 452 kts | 176° |
| 2026-05-05 14:00 | 44.83026 | 20.30889 | 36996 ft | 452 kts | 176° |
| 2026-05-05 14:01 | 44.76810 | 20.31866 | 37000 ft | 453 kts | 176° |
| 2026-05-05 14:01 | 44.70548 | 20.32848 | 36989 ft | 453 kts | 176° |
| 2026-05-05 14:02 | 44.64282 | 20.33828 | 36980 ft | 453 kts | 176° |
| 2026-05-05 14:02 | 44.58005 | 20.34809 | 36976 ft | 453 kts | 176° |
| 2026-05-05 14:03 | 44.51734 | 20.35786 | 36957 ft | 454 kts | 176° |
| 2026-05-05 14:03 | 44.45457 | 20.36762 | 36968 ft | 453 kts | 176° |
| 2026-05-05 14:04 | 44.39178 | 20.37736 | 36964 ft | 454 kts | 176° |
| 2026-05-05 14:04 | 44.32895 | 20.38708 | 36965 ft | 454 kts | 176° |
| 2026-05-05 14:05 | 44.26613 | 20.39679 | 36969 ft | 454 kts | 176° |
| 2026-05-05 14:05 | 44.20331 | 20.40647 | 36967 ft | 454 kts | 176° |
| 2026-05-05 14:06 | 44.14046 | 20.41614 | 36969 ft | 454 kts | 176° |
| 2026-05-05 14:06 | 44.07794 | 20.42574 | 36970 ft | 455 kts | 176° |
| 2026-05-05 14:07 | 44.01503 | 20.43537 | 36967 ft | 455 kts | 176° |
| 2026-05-05 14:07 | 43.95206 | 20.44500 | 36973 ft | 455 kts | 176° |
| 2026-05-05 14:08 | 43.88907 | 20.45460 | 36954 ft | 456 kts | 176° |
| 2026-05-05 14:08 | 43.82605 | 20.46419 | 36970 ft | 456 kts | 176° |
| 2026-05-05 14:09 | 43.76295 | 20.47377 | 36968 ft | 456 kts | 176° |
| 2026-05-05 14:09 | 43.69982 | 20.48334 | 36960 ft | 457 kts | 177° |
| 2026-05-05 14:10 | 43.63647 | 20.49292 | 36979 ft | 458 kts | 176° |
| 2026-05-05 14:10 | 43.57312 | 20.50248 | 36993 ft | 459 kts | 176° |
| 2026-05-05 14:11 | 43.50957 | 20.51205 | 36983 ft | 460 kts | 176° |
| 2026-05-05 14:11 | 43.44593 | 20.52161 | 36997 ft | 461 kts | 177° |
| 2026-05-05 14:12 | 43.38203 | 20.53119 | 36996 ft | 462 kts | 177° |
| 2026-05-05 14:12 | 43.31798 | 20.54078 | 36992 ft | 463 kts | 177° |
| 2026-05-05 14:13 | 43.25397 | 20.55034 | 36987 ft | 463 kts | 177° |
| 2026-05-05 14:13 | 43.19023 | 20.55983 | 37002 ft | 464 kts | 177° |
| 2026-05-05 14:14 | 43.12605 | 20.56938 | 37004 ft | 465 kts | 177° |
| 2026-05-05 14:14 | 43.06168 | 20.57893 | 36995 ft | 465 kts | 177° |
| 2026-05-05 14:15 | 42.99741 | 20.59054 | 37000 ft | 469 kts | 170° |
| 2026-05-05 14:15 | 42.93429 | 20.61366 | 37004 ft | 471 kts | 167° |
| 2026-05-05 14:16 | 42.87124 | 20.63843 | 37012 ft | 472 kts | 167° |
| 2026-05-05 14:16 | 42.80813 | 20.66259 | 37018 ft | 470 kts | 167° |
| 2026-05-05 14:17 | 42.74497 | 20.68618 | 37011 ft | 470 kts | 168° |
| 2026-05-05 14:17 | 42.68186 | 20.70952 | 37023 ft | 470 kts | 168° |
| 2026-05-05 14:18 | 42.61870 | 20.73281 | 37028 ft | 470 kts | 168° |
| 2026-05-05 14:18 | 42.55562 | 20.75605 | 37039 ft | 470 kts | 168° |
| 2026-05-05 14:19 | 42.49240 | 20.77930 | 37025 ft | 471 kts | 168° |
| 2026-05-05 14:19 | 42.42917 | 20.80252 | 37038 ft | 471 kts | 168° |
| 2026-05-05 14:20 | 42.36583 | 20.82571 | 37030 ft | 472 kts | 168° |
| 2026-05-05 14:20 | 42.30243 | 20.84889 | 37038 ft | 472 kts | 168° |
| 2026-05-05 14:21 | 42.23884 | 20.87209 | 37027 ft | 474 kts | 168° |
| 2026-05-05 14:21 | 42.17556 | 20.89512 | 37035 ft | 474 kts | 168° |
| 2026-05-05 14:22 | 42.11182 | 20.91828 | 37040 ft | 475 kts | 168° |
| 2026-05-05 14:22 | 42.04817 | 20.94136 | 37031 ft | 474 kts | 169° |
| 2026-05-05 14:23 | 41.98438 | 20.96444 | 37033 ft | 475 kts | 169° |
| 2026-05-05 14:23 | 41.92054 | 20.98749 | 37040 ft | 475 kts | 169° |
| 2026-05-05 14:24 | 41.85653 | 21.01054 | 37027 ft | 477 kts | 169° |
| 2026-05-05 14:24 | 41.79229 | 21.03364 | 37025 ft | 478 kts | 169° |
| 2026-05-05 14:25 | 41.72792 | 21.05673 | 37025 ft | 479 kts | 169° |
| 2026-05-05 14:25 | 41.66353 | 21.07979 | 37024 ft | 479 kts | 169° |
| 2026-05-05 14:26 | 41.59961 | 21.10264 | 37035 ft | 478 kts | 169° |
| 2026-05-05 14:26 | 41.53531 | 21.12557 | 37032 ft | 478 kts | 169° |
| 2026-05-05 14:27 | 41.47099 | 21.14845 | 37046 ft | 478 kts | 169° |
| 2026-05-05 14:27 | 41.40665 | 21.17130 | 37016 ft | 479 kts | 169° |
| 2026-05-05 14:28 | 41.34221 | 21.19413 | 37043 ft | 479 kts | 169° |
| 2026-05-05 14:28 | 41.27775 | 21.21692 | 37040 ft | 480 kts | 169° |
| 2026-05-05 14:29 | 41.21311 | 21.23974 | 37042 ft | 481 kts | 169° |
| 2026-05-05 14:29 | 41.14839 | 21.26254 | 37044 ft | 482 kts | 169° |
| 2026-05-05 14:30 | 41.08357 | 21.28533 | 37045 ft | 482 kts | 169° |
| 2026-05-05 14:30 | 41.01867 | 21.30810 | 37042 ft | 482 kts | 169° |
| 2026-05-05 14:31 | 40.98613 | 21.31950 | 36769 ft | 487 kts | 169° |
| 2026-05-05 14:31 | 40.95329 | 21.33097 | 36227 ft | 490 kts | 170° |
| 2026-05-05 14:31 | 40.92027 | 21.34214 | 35736 ft | 486 kts | 174° |
| 2026-05-05 14:31 | 40.88714 | 21.34708 | 35211 ft | 474 kts | 186° |
| 2026-05-05 14:32 | 40.85456 | 21.34433 | 34735 ft | 465 kts | 196° |
| 2026-05-05 14:32 | 40.82367 | 21.33538 | 34242 ft | 455 kts | 207° |
| 2026-05-05 14:32 | 40.79359 | 21.32127 | 33763 ft | 456 kts | 208° |
| 2026-05-05 14:32 | 40.76388 | 21.30693 | 33229 ft | 462 kts | 208° |
| 2026-05-05 14:33 | 40.73364 | 21.29242 | 32700 ft | 460 kts | 207° |
| 2026-05-05 14:33 | 40.70360 | 21.27824 | 32212 ft | 457 kts | 207° |
| 2026-05-05 14:33 | 40.67387 | 21.26440 | 32057 ft | 446 kts | 207° |
| 2026-05-05 14:33 | 40.64500 | 21.25110 | 32025 ft | 433 kts | 207° |
| 2026-05-05 14:34 | 40.58849 | 21.22504 | 32041 ft | 433 kts | 207° |
| 2026-05-05 14:34 | 40.53099 | 21.19838 | 32055 ft | 442 kts | 207° |
| 2026-05-05 14:35 | 40.47312 | 21.17178 | 32055 ft | 439 kts | 207° |
| 2026-05-05 14:35 | 40.41555 | 21.14540 | 32033 ft | 438 kts | 207° |
| 2026-05-05 14:36 | 40.35810 | 21.11911 | 32052 ft | 437 kts | 207° |
| 2026-05-05 14:36 | 40.30070 | 21.09286 | 32048 ft | 437 kts | 207° |
| 2026-05-05 14:37 | 40.24339 | 21.06670 | 32055 ft | 436 kts | 207° |
| 2026-05-05 14:37 | 40.18615 | 21.04063 | 32067 ft | 435 kts | 207° |
| 2026-05-05 14:38 | 40.12924 | 21.01474 | 32080 ft | 437 kts | 207° |
| 2026-05-05 14:38 | 40.07172 | 20.98861 | 32072 ft | 438 kts | 207° |
| 2026-05-05 14:39 | 40.01403 | 20.96248 | 32066 ft | 439 kts | 207° |
| 2026-05-05 14:39 | 39.95623 | 20.93633 | 32081 ft | 441 kts | 207° |
| 2026-05-05 14:40 | 39.90791 | 20.91451 | 32099 ft | 442 kts | 207° |
| 2026-05-05 14:40 | 39.84973 | 20.88825 | 32105 ft | 443 kts | 207° |
| 2026-05-05 14:41 | 39.79134 | 20.86201 | 32094 ft | 444 kts | 207° |
| 2026-05-05 14:41 | 39.73298 | 20.83581 | 32099 ft | 443 kts | 207° |
| 2026-05-05 14:42 | 39.67516 | 20.80864 | 32107 ft | 438 kts | 210° |
| 2026-05-05 14:42 | 39.61921 | 20.77807 | 32094 ft | 435 kts | 212° |
| 2026-05-05 14:43 | 39.56400 | 20.74732 | 32102 ft | 434 kts | 211° |
| 2026-05-05 14:43 | 39.50825 | 20.71673 | 32102 ft | 435 kts | 211° |
| 2026-05-05 14:44 | 39.45249 | 20.68645 | 32095 ft | 434 kts | 211° |
| 2026-05-05 14:44 | 39.39669 | 20.65626 | 32113 ft | 434 kts | 210° |
| 2026-05-05 14:45 | 39.34083 | 20.62609 | 32105 ft | 436 kts | 210° |
| 2026-05-05 14:45 | 39.28489 | 20.59592 | 32122 ft | 436 kts | 210° |
| 2026-05-05 14:46 | 39.22875 | 20.56570 | 32111 ft | 437 kts | 210° |
| 2026-05-05 14:46 | 39.17258 | 20.53552 | 32120 ft | 438 kts | 210° |
| 2026-05-05 14:47 | 39.11631 | 20.50532 | 32117 ft | 438 kts | 210° |
| 2026-05-05 14:47 | 39.06030 | 20.47535 | 32085 ft | 429 kts | 210° |
| 2026-05-05 14:48 | 39.03289 | 20.46075 | 31797 ft | 423 kts | 210° |
| 2026-05-05 14:48 | 39.00636 | 20.44663 | 31522 ft | 416 kts | 210° |
| 2026-05-05 14:48 | 38.97969 | 20.43241 | 31158 ft | 413 kts | 210° |
| 2026-05-05 14:48 | 38.95324 | 20.41830 | 30816 ft | 410 kts | 210° |
| 2026-05-05 14:49 | 38.92704 | 20.40432 | 30471 ft | 406 kts | 211° |
| 2026-05-05 14:49 | 38.90102 | 20.39045 | 30116 ft | 403 kts | 211° |
| 2026-05-05 14:49 | 38.87521 | 20.37670 | 29713 ft | 400 kts | 210° |
| 2026-05-05 14:49 | 38.84964 | 20.36310 | 29351 ft | 395 kts | 210° |
| 2026-05-05 14:50 | 38.82432 | 20.34965 | 28970 ft | 391 kts | 210° |
| 2026-05-05 14:50 | 38.79928 | 20.33635 | 28623 ft | 387 kts | 210° |
| 2026-05-05 14:50 | 38.77449 | 20.32319 | 28261 ft | 384 kts | 210° |
| 2026-05-05 14:50 | 38.74992 | 20.31016 | 27901 ft | 380 kts | 210° |
| 2026-05-05 14:51 | 38.72555 | 20.29723 | 27545 ft | 378 kts | 210° |
| 2026-05-05 14:51 | 38.70136 | 20.28441 | 27197 ft | 376 kts | 210° |
| 2026-05-05 14:51 | 38.67727 | 20.27165 | 26844 ft | 374 kts | 209° |
| 2026-05-05 14:51 | 38.65315 | 20.25888 | 26493 ft | 376 kts | 209° |
| 2026-05-05 14:52 | 38.62895 | 20.24606 | 26149 ft | 377 kts | 209° |
| 2026-05-05 14:52 | 38.60474 | 20.23328 | 25792 ft | 375 kts | 209° |
| 2026-05-05 14:52 | 38.58069 | 20.22060 | 25441 ft | 373 kts | 208° |
| 2026-05-05 14:52 | 38.55679 | 20.20801 | 25095 ft | 370 kts | 208° |
| 2026-05-05 14:53 | 38.53305 | 20.19551 | 24747 ft | 368 kts | 208° |
| 2026-05-05 14:53 | 38.50944 | 20.18308 | 24407 ft | 366 kts | 208° |
| 2026-05-05 14:53 | 38.48598 | 20.17073 | 24069 ft | 364 kts | 208° |
| 2026-05-05 14:53 | 38.46263 | 20.15845 | 23716 ft | 362 kts | 208° |
| 2026-05-05 14:54 | 38.43939 | 20.14624 | 23325 ft | 360 kts | 208° |
| 2026-05-05 14:54 | 38.41624 | 20.13408 | 22944 ft | 358 kts | 208° |
| 2026-05-05 14:54 | 38.39537 | 20.11824 | 22611 ft | 342 kts | 228° |
| 2026-05-05 14:54 | 38.37827 | 20.09813 | 22384 ft | 338 kts | 226° |
| 2026-05-05 14:55 | 38.36005 | 20.07916 | 22104 ft | 338 kts | 222° |
| 2026-05-05 14:55 | 38.34051 | 20.06174 | 21873 ft | 340 kts | 218° |
| 2026-05-05 14:55 | 38.32016 | 20.04602 | 21617 ft | 345 kts | 214° |
| 2026-05-05 14:55 | 38.29911 | 20.03180 | 21380 ft | 348 kts | 211° |
| 2026-05-05 14:56 | 38.27724 | 20.01898 | 21117 ft | 345 kts | 208° |
| 2026-05-05 14:56 | 38.25492 | 20.00779 | 20807 ft | 344 kts | 204° |
| 2026-05-05 14:56 | 38.23229 | 19.99833 | 20485 ft | 343 kts | 201° |
| 2026-05-05 14:56 | 38.20920 | 19.99053 | 20162 ft | 342 kts | 197° |
| 2026-05-05 14:57 | 38.18590 | 19.98445 | 19843 ft | 342 kts | 194° |
| 2026-05-05 14:57 | 38.16236 | 19.98008 | 19517 ft | 342 kts | 190° |
| 2026-05-05 14:57 | 38.13866 | 19.97743 | 19194 ft | 342 kts | 187° |
| 2026-05-05 14:57 | 38.11488 | 19.97651 | 18861 ft | 342 kts | 183° |
| 2026-05-05 14:58 | 38.09106 | 19.97732 | 18520 ft | 343 kts | 179° |
| 2026-05-05 14:58 | 38.06734 | 19.97987 | 18148 ft | 343 kts | 176° |
| 2026-05-05 14:58 | 38.04374 | 19.98416 | 17786 ft | 342 kts | 172° |
| 2026-05-05 14:58 | 38.02043 | 19.99012 | 17449 ft | 341 kts | 169° |
| 2026-05-05 14:59 | 37.99747 | 19.99752 | 17115 ft | 339 kts | 166° |
| 2026-05-05 14:59 | 37.97537 | 20.00606 | 16928 ft | 333 kts | 165° |
| 2026-05-05 14:59 | 37.95344 | 20.01530 | 16630 ft | 333 kts | 160° |
| 2026-05-05 14:59 | 37.93204 | 20.02683 | 16325 ft | 335 kts | 155° |
| 2026-05-05 15:00 | 37.91128 | 20.04035 | 16002 ft | 336 kts | 152° |
| 2026-05-05 15:00 | 37.89764 | 20.05038 | 15781 ft | 335 kts | 149° |
| 2026-05-05 15:00 | 37.87196 | 20.07178 | 15343 ft | 333 kts | 144° |
| 2026-05-05 15:00 | 37.85349 | 20.08939 | 15021 ft | 331 kts | 141° |
| 2026-05-05 15:01 | 37.83593 | 20.10812 | 14702 ft | 330 kts | 138° |
| 2026-05-05 15:01 | 37.81923 | 20.12802 | 14373 ft | 329 kts | 134° |
| 2026-05-05 15:01 | 37.80345 | 20.14896 | 14040 ft | 328 kts | 131° |
| 2026-05-05 15:01 | 37.78866 | 20.17087 | 13676 ft | 328 kts | 127° |
| 2026-05-05 15:02 | 37.77485 | 20.19365 | 13331 ft | 326 kts | 124° |
| 2026-05-05 15:02 | 37.76187 | 20.21699 | 12993 ft | 323 kts | 122° |
| 2026-05-05 15:02 | 37.74996 | 20.24097 | 12675 ft | 321 kts | 118° |
| 2026-05-05 15:02 | 37.74038 | 20.26623 | 12258 ft | 318 kts | 100° |
| 2026-05-05 15:03 | 37.73947 | 20.29371 | 11887 ft | 312 kts | 82° |
| 2026-05-05 15:03 | 37.74124 | 20.32105 | 11516 ft | 312 kts | 82° |
| 2026-05-05 15:03 | 37.74275 | 20.34836 | 11184 ft | 311 kts | 84° |
| 2026-05-05 15:03 | 37.74376 | 20.37554 | 10866 ft | 310 kts | 85° |
| 2026-05-05 15:04 | 37.74439 | 20.40270 | 10549 ft | 308 kts | 86° |
| 2026-05-05 15:04 | 37.74476 | 20.42961 | 10301 ft | 304 kts | 86° |
| 2026-05-05 15:04 | 37.74498 | 20.45618 | 10073 ft | 300 kts | 86° |
| 2026-05-05 15:04 | 37.74512 | 20.48221 | 9971 ft | 290 kts | 87° |
| 2026-05-05 15:05 | 37.74533 | 20.53343 | 9164 ft | 293 kts | 87° |
| 2026-05-05 15:05 | 37.74541 | 20.55908 | 8856 ft | 291 kts | 87° |
| 2026-05-05 15:05 | 37.74547 | 20.58458 | 8552 ft | 289 kts | 87° |
| 2026-05-05 15:06 | 37.74333 | 20.60967 | 8234 ft | 291 kts | 109° |
| 2026-05-05 15:06 | 37.73131 | 20.62978 | 7981 ft | 290 kts | 144° |
| 2026-05-05 15:06 | 37.71263 | 20.63829 | 7719 ft | 287 kts | 175° |
| 2026-05-05 15:06 | 37.69288 | 20.64045 | 7441 ft | 285 kts | 171° |
| 2026-05-05 15:07 | 37.67401 | 20.64669 | 7147 ft | 283 kts | 159° |
| 2026-05-05 15:07 | 37.65604 | 20.65705 | 6980 ft | 276 kts | 151° |
| 2026-05-05 15:07 | 37.64017 | 20.66915 | 6695 ft | 264 kts | 146° |
| 2026-05-05 15:07 | 37.62564 | 20.68235 | 6379 ft | 251 kts | 142° |
| 2026-05-05 15:08 | 37.61250 | 20.69616 | 6058 ft | 240 kts | 137° |
| 2026-05-05 15:08 | 37.60080 | 20.71056 | 5791 ft | 231 kts | 132° |
| 2026-05-05 15:08 | 37.59036 | 20.72565 | 5528 ft | 225 kts | 128° |
| 2026-05-05 15:08 | 37.58116 | 20.74121 | 5324 ft | 218 kts | 123° |
| 2026-05-05 15:09 | 37.57298 | 20.75711 | 5138 ft | 214 kts | 120° |
| 2026-05-05 15:09 | 37.56578 | 20.77348 | 4926 ft | 211 kts | 115° |
| 2026-05-05 15:09 | 37.55994 | 20.79039 | 4712 ft | 210 kts | 109° |
| 2026-05-05 15:09 | 37.55530 | 20.80789 | 4512 ft | 211 kts | 105° |
| 2026-05-05 15:10 | 37.55154 | 20.82548 | 4400 ft | 205 kts | 101° |
| 2026-05-05 15:10 | 37.54872 | 20.84314 | 4322 ft | 207 kts | 96° |
| 2026-05-05 15:10 | 37.54686 | 20.86112 | 4258 ft | 211 kts | 93° |
| 2026-05-05 15:10 | 37.54597 | 20.87978 | 4173 ft | 208 kts | 90° |
| 2026-05-05 15:11 | 37.54597 | 20.89757 | 4065 ft | 197 kts | 85° |
| 2026-05-05 15:11 | 37.54699 | 20.91430 | 3950 ft | 187 kts | 76° |
| 2026-05-05 15:11 | 37.55191 | 20.92886 | 3794 ft | 182 kts | 48° |
| 2026-05-05 15:11 | 37.56135 | 20.93908 | 3601 ft | 178 kts | 24° |
| 2026-05-05 15:12 | 37.57298 | 20.94348 | 3405 ft | 174 kts | 4° |
| 2026-05-05 15:12 | 37.58494 | 20.94289 | 3155 ft | 173 kts | 346° |
| 2026-05-05 15:12 | 37.59665 | 20.93893 | 2894 ft | 174 kts | 341° |
| 2026-05-05 15:12 | 37.60809 | 20.93467 | 2685 ft | 168 kts | 342° |
| 2026-05-05 15:13 | 37.61907 | 20.93059 | 2499 ft | 162 kts | 342° |
| 2026-05-05 15:13 | 37.63005 | 20.92652 | 2311 ft | 164 kts | 342° |
| 2026-05-05 15:13 | 37.64105 | 20.92258 | 2073 ft | 164 kts | 343° |
| 2026-05-05 15:13 | 37.65203 | 20.91875 | 1865 ft | 162 kts | 343° |
| 2026-05-05 15:14 | 37.66246 | 20.91513 | 1691 ft | 150 kts | 341° |
| 2026-05-05 15:14 | 37.67218 | 20.91178 | 1504 ft | 136 kts | 342° |
| 2026-05-05 15:14 | 37.68131 | 20.90861 | 1322 ft | 141 kts | 341° |
| 2026-05-05 15:14 | 37.69081 | 20.90531 | 1106 ft | 142 kts | 342° |
| 2026-05-05 15:15 | 37.70042 | 20.90225 | 927 ft | 142 kts | 344° |
| 2026-05-05 15:15 | 37.71009 | 20.89941 | 752 ft | 144 kts | 344° |
| 2026-05-05 15:15 | 37.71986 | 20.89584 | 540 ft | 147 kts | 343° |
| 2026-05-05 15:15 | 37.72983 | 20.89206 | 362 ft | 151 kts | 344° |
| 2026-05-05 15:16 | 37.73993 | 20.88835 | 126 ft | 152 kts | 345° |
| 2026-05-05 15:16 | 37.74966 | 20.88472 | 17 ft | 128 kts | 344° |
| 2026-05-05 15:16 | 37.75518 | 20.88267 | 20 ft | 50 kts | 343° |
| 2026-05-05 15:16 | 37.75658 | 20.88218 | 22 ft | 5 kts | 358° |
| 2026-05-05 15:17 | 37.75690 | 20.88223 | 22 ft | 5 kts | 338° |
| 2026-05-05 15:17 | 37.75680 | 20.88196 | 22 ft | 5 kts | 181° |
| 2026-05-05 15:17 | 37.75648 | 20.88215 | 22 ft | 5 kts | 152° |
| 2026-05-05 15:17 | 37.75610 | 20.88233 | 21 ft | 6 kts | 164° |
| 2026-05-05 15:18 | 37.75565 | 20.88250 | 20 ft | 7 kts | 164° |
| 2026-05-05 15:18 | 37.75520 | 20.88267 | 20 ft | 7 kts | 163° |
| 2026-05-05 15:18 | 37.75487 | 20.88304 | 20 ft | 7 kts | 110° |
| 2026-05-05 15:18 | 37.75474 | 20.88359 | 20 ft | 6 kts | 107° |
| 2026-05-05 15:19 | 37.75454 | 20.88408 | 20 ft | 6 kts | 143° |
| 2026-05-05 15:19 | 37.75412 | 20.88426 | 21 ft | 6 kts | 161° |
| 2026-05-05 15:19 | 37.75371 | 20.88443 | 19 ft | 6 kts | 162° |
| 2026-05-05 15:19 | 37.75331 | 20.88459 | 20 ft | 6 kts | 162° |
| 2026-05-05 15:20 | 37.75318 | 20.88502 | 19 ft | 6 kts | 73° |
| 2026-05-05 15:20 | 37.75328 | 20.88545 | 19 ft | 2 kts | 74° |
| 2026-05-05 15:20 | 37.75330 | 20.88553 | 21 ft | 0 kts | 74° |